Nestos Reefer — 3EAJ9 — position and weather

sailwx.info

Track history (hours):
 
Tides and Currents Weather Stations Pressure Air Temp Water Temp Dewpoint Dewpoint Depression Visibility Wind Speed Wind Dir Waves Ship Positions

Nestos Reefer

Last reported at 2018-Jun-22 17:47 UTC. Time now 2018-Jun-23 08:26 UTC.
Position N 27°41' W 015°19'.

Length 134 m; draft 5.2 m.

Type: Cargo ship. MMSI: 370115000.

Date/timePositionNaut miles runAvg speedWind from/ knotsBaromVisibWave heightAir tempDewpointWater temp
2018-Jun-22 17:47N 27°41' W 015°19'517.0
2018-Jun-22 17:31N 27°45' W 015°17'815.6
2018-Jun-22 17:01N 27°53' W 015°15'714.6
2018-Jun-22 16:30N 28°00' W 015°17'612.6
2018-Jun-22 16:00N 28°05' W 015°21'4 8.8
2018-Jun-22 15:31N 28°08' W 015°25'0 0.5
2018-Jun-22 14:58N 28°08' W 015°25'0 0.0
2018-Jun-22 14:28N 28°08' W 015°25'0 0.0
2018-Jun-22 13:58N 28°08' W 015°25'0 0.0
2018-Jun-22 13:28N 28°08' W 015°25'0 0.0
2018-Jun-22 12:58N 28°08' W 015°25'0 0.0
2018-Jun-22 12:28N 28°08' W 015°25'0 0.0
2018-Jun-22 11:58N 28°08' W 015°25'0 0.0
2018-Jun-22 11:31N 28°08' W 015°25'0 0.0
2018-Jun-22 11:01N 28°08' W 015°25'0 0.0
2018-Jun-22 10:28N 28°08' W 015°25'0 0.0
2018-Jun-22 10:01N 28°08' W 015°25'0 0.0
2018-Jun-22 09:31N 28°08' W 015°25'0 0.0
2018-Jun-22 08:58N 28°08' W 015°25'0 0.0
2018-Jun-22 08:28N 28°08' W 015°25'0 0.0
2018-Jun-22 08:01N 28°08' W 015°25'0 0.0
2018-Jun-22 07:19N 28°08' W 015°25'0 0.0
2018-Jun-22 06:49N 28°08' W 015°25'0 0.0
2018-Jun-22 06:16N 28°08' W 015°25'0 0.0
2018-Jun-22 05:52N 28°08' W 015°25'0 0.0
2018-Jun-22 05:31N 28°08' W 015°25'0 0.0
2018-Jun-22 04:52N 28°08' W 015°25'0 0.0
2018-Jun-22 04:22N 28°08' W 015°25'0 0.0
2018-Jun-22 03:52N 28°08' W 015°25'0 0.0
2018-Jun-22 03:25N 28°08' W 015°25'0 0.0
2018-Jun-22 02:58N 28°08' W 015°25'0 0.1
2018-Jun-22 02:30N 28°08' W 015°25'2 4.3
2018-Jun-22 01:59N 28°06' W 015°24'1 1.1
2018-Jun-22 01:30N 28°07' W 015°23'510.1
2018-Jun-22 00:59N 28°11' W 015°19'612.1
2018-Jun-22 00:30N 28°15' W 015°15'713.8
2018-Jun-22 00:00N 28°20' W 015°10'816.5
2018-Jun-21 23:30N 28°28' W 015°06'816.6
2018-Jun-21 23:00N 28°35' W 015°02'816.8
2018-Jun-21 22:30N 28°43' W 014°58'916.7
2018-Jun-21 21:59N 28°51' W 014°53'816.6
2018-Jun-21 21:30N 28°58' W 014°49'816.6
2018-Jun-21 21:00N 29°05' W 014°45'816.3
2018-Jun-21 20:31N 29°13' W 014°41'1216.5
2018-Jun-21 19:48N 29°23' W 014°35'716.7
2018-Jun-21 19:25N 29°29' W 014°32'716.6
2018-Jun-21 19:00N 29°35' W 014°29'2916.4
2018-Jun-21 17:13N 30°01' W 014°14'416.5
2018-Jun-21 16:59N 30°05' W 014°12'  
2018-Jun-19 06:02N 38°58' W 010°55'616.0
2018-Jun-19 05:39N 39°04' W 010°52'715.9
2018-Jun-19 05:14N 39°11' W 010°49'516.2
2018-Jun-19 04:54N 39°15' W 010°47'816.5
2018-Jun-19 04:24N 39°23' W 010°42'717.1
2018-Jun-19 04:01N 39°29' W 010°39'816.5
2018-Jun-19 03:30N 39°37' W 010°34'816.5
2018-Jun-19 03:00N 39°44' W 010°30'816.8
2018-Jun-19 02:30N 39°52' W 010°26'816.9
2018-Jun-19 02:01N 39°60' W 010°22'916.2
2018-Jun-19 01:29N 40°08' W 010°17'816.5
2018-Jun-19 01:00N 40°15' W 010°13'816.7
2018-Jun-19 00:30N 40°23' W 010°09'816.7
2018-Jun-19 00:00N 40°30' W 010°05'816.6
2018-Jun-18 23:29N 40°38' W 010°00'816.7
2018-Jun-18 23:00N 40°46' W 009°56'2216.7
2018-Jun-18 21:41N 41°06' W 009°45'416.7
2018-Jun-18 21:27N 41°09' W 009°43'  
Track history (hours):
 
Tides and Currents Weather Stations Pressure Air Temp Water Temp Dewpoint Dewpoint Depression Visibility Wind Speed Wind Dir Waves Ship Positions

Nestos Reefer

Last reported at 2018-Jun-22 17:47 UTC. Time now 2018-Jun-23 08:26 UTC.
Position N 27°41' W 015°19'.

Length 134 m; draft 5.2 m.

Type: Cargo ship. MMSI: 370115000.

Date/timePositionNaut miles runAvg speedWind from/ knotsBaromVisibWave heightAir tempDewpointWater temp
2018-Jun-22 17:47N 27°41' W 015°19'517.0
2018-Jun-22 17:31N 27°45' W 015°17'815.6
2018-Jun-22 17:01N 27°53' W 015°15'714.6
2018-Jun-22 16:30N 28°00' W 015°17'612.6
2018-Jun-22 16:00N 28°05' W 015°21'4 8.8
2018-Jun-22 15:31N 28°08' W 015°25'0 0.5
2018-Jun-22 14:58N 28°08' W 015°25'0 0.0
2018-Jun-22 14:28N 28°08' W 015°25'0 0.0
2018-Jun-22 13:58N 28°08' W 015°25'0 0.0
2018-Jun-22 13:28N 28°08' W 015°25'0 0.0
2018-Jun-22 12:58N 28°08' W 015°25'0 0.0
2018-Jun-22 12:28N 28°08' W 015°25'0 0.0
2018-Jun-22 11:58N 28°08' W 015°25'0 0.0
2018-Jun-22 11:31N 28°08' W 015°25'0 0.0
2018-Jun-22 11:01N 28°08' W 015°25'0 0.0
2018-Jun-22 10:28N 28°08' W 015°25'0 0.0
2018-Jun-22 10:01N 28°08' W 015°25'0 0.0
2018-Jun-22 09:31N 28°08' W 015°25'0 0.0
2018-Jun-22 08:58N 28°08' W 015°25'0 0.0
2018-Jun-22 08:28N 28°08' W 015°25'0 0.0
2018-Jun-22 08:01N 28°08' W 015°25'0 0.0
2018-Jun-22 07:19N 28°08' W 015°25'0 0.0
2018-Jun-22 06:49N 28°08' W 015°25'0 0.0
2018-Jun-22 06:16N 28°08' W 015°25'0 0.0
2018-Jun-22 05:52N 28°08' W 015°25'0 0.0
2018-Jun-22 05:31N 28°08' W 015°25'0 0.0
2018-Jun-22 04:52N 28°08' W 015°25'0 0.0
2018-Jun-22 04:22N 28°08' W 015°25'0 0.0
2018-Jun-22 03:52N 28°08' W 015°25'0 0.0
2018-Jun-22 03:25N 28°08' W 015°25'0 0.0
2018-Jun-22 02:58N 28°08' W 015°25'0 0.1
2018-Jun-22 02:30N 28°08' W 015°25'2 4.3
2018-Jun-22 01:59N 28°06' W 015°24'1 1.1
2018-Jun-22 01:30N 28°07' W 015°23'510.1
2018-Jun-22 00:59N 28°11' W 015°19'612.1
2018-Jun-22 00:30N 28°15' W 015°15'713.8
2018-Jun-22 00:00N 28°20' W 015°10'816.5
2018-Jun-21 23:30N 28°28' W 015°06'816.6
2018-Jun-21 23:00N 28°35' W 015°02'816.8
2018-Jun-21 22:30N 28°43' W 014°58'916.7
2018-Jun-21 21:59N 28°51' W 014°53'816.6
2018-Jun-21 21:30N 28°58' W 014°49'816.6
2018-Jun-21 21:00N 29°05' W 014°45'816.3
2018-Jun-21 20:31N 29°13' W 014°41'1216.5
2018-Jun-21 19:48N 29°23' W 014°35'716.7
2018-Jun-21 19:25N 29°29' W 014°32'716.6
2018-Jun-21 19:00N 29°35' W 014°29'2916.4
2018-Jun-21 17:13N 30°01' W 014°14'416.5
2018-Jun-21 16:59N 30°05' W 014°12'  
2018-Jun-19 06:02N 38°58' W 010°55'616.0
2018-Jun-19 05:39N 39°04' W 010°52'715.9
2018-Jun-19 05:14N 39°11' W 010°49'516.2
2018-Jun-19 04:54N 39°15' W 010°47'816.5
2018-Jun-19 04:24N 39°23' W 010°42'717.1
2018-Jun-19 04:01N 39°29' W 010°39'816.5
2018-Jun-19 03:30N 39°37' W 010°34'816.5
2018-Jun-19 03:00N 39°44' W 010°30'816.8
2018-Jun-19 02:30N 39°52' W 010°26'816.9
2018-Jun-19 02:01N 39°60' W 010°22'916.2
2018-Jun-19 01:29N 40°08' W 010°17'816.5
2018-Jun-19 01:00N 40°15' W 010°13'816.7
2018-Jun-19 00:30N 40°23' W 010°09'816.7
2018-Jun-19 00:00N 40°30' W 010°05'816.6
2018-Jun-18 23:29N 40°38' W 010°00'816.7
2018-Jun-18 23:00N 40°46' W 009°56'2216.7
2018-Jun-18 21:41N 41°06' W 009°45'416.7
2018-Jun-18 21:27N 41°09' W 009°43'  

Dump ship's entire track history